Relevés horaires Schaffen (Belgique)


Relevés horaires à Schaffen - Jeudi 17 Juin 2021
Heure UTC1 Température [°C] Vent [km/h] Hum. [%] Pres.4 [hPa] Visi. [Km] Nébu. [octa] Préc.5 [mm] Cond.
2m. Res. Ros. Dir.2 Vit. Moy. Raf.3
19:00 26.0 26.0 17.8 NO 3.7 -- 7.4 61 1011.8(0.5/3h) 20 -- -- --
18:00 26.9 26.9 17.6 ONO 3.7 -- 18.5 57 1011.6(0.3/3h) 20 -- -- --
17:00 28.4 28.4 17.0 O 3.7 -- 9.3 50 1011.2(0.1/3h) 20 -- -- --
16:00 29.8 29.8 17.2 O 5.6 -- 11.1 47 1011.2(0.1/3h) 20 -- -- --
15:00 29.6 29.6 15.7 SO 5.6 -- 18.5 43 1011.2(0.4/3h) 20 -- -- --
14:00 30.5 30.5 17.1 OSO 7.4 -- 16.7 45 1011.1(0.7/3h) 20 -- -- --
13:00 29.4 29.4 16.0 SO 9.3 -- 18.5 44 1011(0.9/3h) 20 -- -- --
12:00 29.9 29.9 15.4 OSO 11.1 -- 20.4 41 1010.7(1.2/3h) 20 -- -- --
11:00 28.7 28.7 17.2 S 9.3 -- 20.4 50 1010.2(1.0/3h) 20 5/8 -- --
10:00 27.2 27.2 17.8 SSE 7.4 -- 11.1 57 1010.2(0.0/3h) 20 5/8 -- --
09:00 25.2 25.2 17.3 SSE 5.6 -- 9.3 62 1009.7(0.0/3h) 20 7/8 -- --
08:00 25.7 25.7 16.8 NNO 1.9 -- 9.3 58 1009.3(0.5/3h) 20 -- -- --
07:00 24.9 24.9 16.0 SO 3.7 -- 9.3 58 1010.1(1.2/3h) 20 -- -- --
06:00 21.8 21.8 15.5 S 3.7 -- 7.4 67 1009.7(0.6/3h) 20 -- -- --
05:00 21.0 21.0 15.6 SSE 3.7 -- 5.6 71 1009.1(-0.5/3h) 20 -- -- --
04:00 19.8 19.8 16.2 SSE 3.7 -- 5.6 80 1009.1(-0.3/3h) 18 -- -- --
03:00 20.0 20.0 16.6 SE 3.7 -- 5.6 81 1009.1(-0.6/3h) 17 -- -- --
02:00 20.1 20.1 16.6 SSE 3.7 -- 3.7 80 1009.5(-0.7/3h) 16 -- -- --
01:00 20.8 20.8 16.4 ESE 3.7 -- 3.7 76 1009.3(-1.6/3h) 19 -- -- --
00:00 21.8 21.8 16.2 NNO 1.9 -- 3.7 71 1009.7(-1.2/3h) 20 -- -- --

1 Coordinated Universal Time. Actuellement il est 21:00 locale et 19:00 UTC.

2 Le vent souffle depuis la direction indiquée vers la direction oposée.

3 Les rafales max. sont disponible 40 min après l'heure du relevé.

4 Pour les stations d'altitude (plus de 600m) le géopotentiel du niveau le plus proche de la pression obligatoire est indiqué.

5 Les stations disposant d'un diffuseur peuvent indiquer "trace". Cela signifie que des précipitations ont touchés le sol mais que la quantité est inférieure à 0.1 mm.

Récapitulatif de la journée
Température [°C] Vent [km/h] Ensoleillement4 [h] Precipitations totale5 [mm] Pression [Hpa]
Min1 Max.2 Moy.3 Max. Min Max.
19.8 30.6 0 20.4 0 h 0 min 0 1009.1 1011.8

1 Température minimale relevée entre 18:00 UTC la veille et 18:00 UTC le jour donné.

2 Température maximale relevée entre 06:00 UTC le jour donné et 06:00 UTC le lendemain.

3 Vent moyen de la journée basé sur les relevés horaires.

4 Ensoleillement en heures relevé entre 06:00 UTC la veille et 06:00 UTC le jour donné.

5 Précipitations totales tombées entre 06:00 UTC la jour donné et 06:00 UTC le lendemain.

Graphiques horaires